Nord Crest — 3EZV6 — position and weather

sailwx.info

Track history (hours):
 
Tides and Currents Weather Stations Pressure Air Temp Water Temp Dewpoint Dewpoint Depression Visibility Wind Speed Wind Dir Waves Ship Positions

Nord Crest

Last reported at 2017-Aug-16 10:10 UTC. Time now 2017-Sep-21 05:25 UTC.
Position N 37°23' E 025°55'.
Warning: this ship's position is 35 days out of date.

Length 200 m; draft 10.7 m.

Type: Cargo ship. MMSI: 357711000.

Date/timePositionNaut miles runAvg speedWind from/ knotsBaromVisibWave heightAir tempDewpointWater temp
2017-Aug-16 10:10N 37°23' E 025°55'211.8
2017-Aug-16 10:00N 37°24' E 025°54'612.0
2017-Aug-16 09:30N 37°30' E 025°51'612.6
2017-Aug-16 09:00N 37°36' E 025°48'612.6
2017-Aug-16 08:30N 37°42' E 025°45'613.0
2017-Aug-16 08:00N 37°48' E 025°42'16511.7
2017-Aug-15 18:00N 40°25' E 026°44'712.2
2017-Aug-15 17:25N 40°29' E 026°52'137 2.9
2017-Aug-13 19:01N 41°22' E 029°38'0 0.5
2017-Aug-13 19:00N 41°22' E 029°38'0 0.7
2017-Aug-13 18:28N 41°23' E 029°38'0 0.8
2017-Aug-13 18:00N 41°23' E 029°38'0 0.9
2017-Aug-13 17:31N 41°23' E 029°37'0 1.0
2017-Aug-13 17:00N 41°24' E 029°37'1 1.1
2017-Aug-13 16:30N 41°24' E 029°36'1 1.2
2017-Aug-13 16:00N 41°24' E 029°36'1 1.3
2017-Aug-13 15:30N 41°25' E 029°35'1 1.3
2017-Aug-13 15:00N 41°25' E 029°34'1 1.3
2017-Aug-13 14:30N 41°25' E 029°33'1 1.2
2017-Aug-13 14:00N 41°25' E 029°33'1 1.1
2017-Aug-13 13:31N 41°25' E 029°32'1 1.0
2017-Aug-13 12:56N 41°25' E 029°31'1 1.0
2017-Aug-13 11:41N 41°25' E 029°29'12 2.0
2017-Aug-13 05:25N 41°24' E 029°46'1 0.4
2017-Aug-13 02:53N 41°25' E 029°45'0 0.6
2017-Aug-13 02:17N 41°25' E 029°45'0 0.6
2017-Aug-13 02:00N 41°25' E 029°45'0 0.6
2017-Aug-13 01:29N 41°25' E 029°45'0 0.9
2017-Aug-13 01:00N 41°26' E 029°44'0 0.9
2017-Aug-13 00:30N 41°26' E 029°44'0 0.9
2017-Aug-13 00:00N 41°26' E 029°44'0 0.8
2017-Aug-12 23:31N 41°27' E 029°43'0 0.9
2017-Aug-12 23:00N 41°27' E 029°43'0 0.8
2017-Aug-12 22:30N 41°27' E 029°42'0 0.9
2017-Aug-12 22:00N 41°27' E 029°42'1 0.9
2017-Aug-12 21:20N 41°27' E 029°41'0 0.9
2017-Aug-12 21:00N 41°27' E 029°41'0 0.9
2017-Aug-12 20:30N 41°27' E 029°40'0 0.9
2017-Aug-12 19:57N 41°27' E 029°39'0 0.8
2017-Aug-12 19:29N 41°27' E 029°39'0 0.8
2017-Aug-12 18:54N 41°27' E 029°38'0 0.8
2017-Aug-12 18:19N 41°27' E 029°38'0 0.7
2017-Aug-12 17:59N 41°27' E 029°37'0 0.7
2017-Aug-12 17:25N 41°27' E 029°37'0 0.6
2017-Aug-12 17:00N 41°27' E 029°37'0 0.5
2017-Aug-12 16:30N 41°27' E 029°36'0 0.4
2017-Aug-12 15:44N 41°26' E 029°36'0 0.3
2017-Aug-12 15:30N 41°26' E 029°36'0 0.2
2017-Aug-12 15:00N 41°26' E 029°36'3 0.5
2017-Aug-12 09:13N 41°29' E 029°36'0 0.8
2017-Aug-12 08:59N 41°29' E 029°36'0 1.0
2017-Aug-12 08:30N 41°30' E 029°36'1 1.0
2017-Aug-12 08:00N 41°30' E 029°35'0 0.9
2017-Aug-12 07:29N 41°31' E 029°35'0 0.7
2017-Aug-12 06:58N 41°31' E 029°35'0 1.0
2017-Aug-12 06:30N 41°31' E 029°34'0 0.9
2017-Aug-12 06:00N 41°32' E 029°34'0 0.5
2017-Aug-12 05:30N 41°32' E 029°34'2 4.1
2017-Aug-12 04:57N 41°32' E 029°37'5 9.9
2017-Aug-12 04:25N 41°35' E 029°43'711.8
2017-Aug-12 03:50N 41°39' E 029°50'411.8
2017-Aug-12 03:30N 41°41' E 029°55'1011.8
2017-Aug-12 02:37N 41°46' E 030°07'111.9
2017-Aug-12 02:30N 41°47' E 030°09'612.0
2017-Aug-12 02:00N 41°50' E 030°16'612.1
2017-Aug-12 01:30N 41°53' E 030°22'612.1
2017-Aug-12 01:00N 41°56' E 030°29'612.1
2017-Aug-12 00:30N 41°59' E 030°36'612.2
2017-Aug-12 00:01N 42°02' E 030°43'612.3
2017-Aug-11 23:30N 42°05' E 030°51'612.5
2017-Aug-11 23:00N 42°09' E 030°58'612.5
2017-Aug-11 22:30N 42°12' E 031°05'612.5
2017-Aug-11 22:00N 42°15' E 031°12'612.6
2017-Aug-11 21:30N 42°18' E 031°20'612.7
2017-Aug-11 21:00N 42°21' E 031°27'612.6
2017-Aug-11 20:30N 42°24' E 031°35'612.5
2017-Aug-11 20:00N 42°27' E 031°42'612.3
2017-Aug-11 19:31N 42°31' E 031°49'612.2
2017-Aug-11 19:00N 42°34' E 031°56'612.2
2017-Aug-11 18:30N 42°37' E 032°03'612.7
2017-Aug-11 18:00N 42°40' E 032°11'713.8
2017-Aug-11 17:31N 42°44' E 032°19'713.8
2017-Aug-11 17:00N 42°47' E 032°27'713.5
2017-Aug-11 16:30N 42°51' E 032°35'713.3
2017-Aug-11 16:00N 42°54' E 032°43'713.1
2017-Aug-11 15:30N 42°57' E 032°50'713.1
2017-Aug-11 15:00N 43°01' E 032°58'712.9
2017-Aug-11 14:30N 43°04' E 033°06'189 9.3
2017-Aug-10 18:09N 45°02' E 036°32'0 0.0
2017-Aug-10 16:57N 45°02' E 036°32'0 0.0
2017-Aug-10 16:24N 45°02' E 036°32'4 0.5
2017-Aug-10 08:41N 45°06' E 036°32'1 2.3
2017-Aug-10 08:06N 45°07' E 036°33'0 0.2
2017-Aug-10 08:00N 45°07' E 036°33'0 0.1
2017-Aug-10 07:30N 45°07' E 036°33'0 0.0
2017-Aug-10 05:30N 45°07' E 036°33'0 0.0
2017-Aug-10 04:54N 45°07' E 036°33'0 0.0
2017-Aug-10 04:18N 45°07' E 036°33'0 0.0
2017-Aug-10 04:00N 45°07' E 036°33'0 0.0
2017-Aug-10 03:30N 45°07' E 036°33'0 0.0
2017-Aug-10 03:00N 45°07' E 036°33'0 0.0
2017-Aug-10 02:30N 45°07' E 036°33'0 0.0
2017-Aug-09 21:36N 45°07' E 036°33'0 0.0
2017-Aug-09 19:09N 45°07' E 036°33'0 0.0
2017-Aug-09 19:00N 45°07' E 036°33'0 0.0
2017-Aug-09 17:12N 45°07' E 036°33'0 0.1
2017-Aug-09 17:00N 45°07' E 036°33'0 0.0
2017-Aug-09 16:30N 45°07' E 036°33'0 0.0
2017-Aug-09 16:00N 45°07' E 036°33'0 0.0
2017-Aug-09 15:27N 45°07' E 036°33'0 0.0
2017-Aug-09 14:48N 45°07' E 036°33'0 0.1
2017-Aug-09 14:30N 45°07' E 036°33'0 0.0
2017-Aug-09 14:00N 45°07' E 036°33'0 0.0
2017-Aug-09 13:27N 45°07' E 036°33'0 0.0
2017-Aug-09 13:00N 45°07' E 036°33'0 0.0
2017-Aug-09 12:30N 45°07' E 036°33'0 0.0
2017-Aug-09 11:57N 45°07' E 036°33'0 0.0
2017-Aug-09 11:27N 45°07' E 036°33'0 0.0
2017-Aug-09 10:12N 45°07' E 036°33'0 0.0
2017-Aug-08 19:24N 45°07' E 036°33'0 0.1
2017-Aug-08 19:00N 45°07' E 036°33'0 0.1
2017-Aug-08 18:30N 45°07' E 036°33'0 0.2
2017-Aug-08 18:00N 45°07' E 036°33'0 0.1
2017-Aug-08 17:30N 45°07' E 036°33'0 0.0
2017-Aug-08 17:00N 45°07' E 036°33'0 0.0
2017-Aug-08 16:27N 45°07' E 036°33'0 0.0
2017-Aug-08 16:00N 45°07' E 036°33'0 0.1
2017-Aug-08 15:30N 45°07' E 036°33'0 0.1
2017-Aug-08 14:54N 45°07' E 036°33'0 0.1
2017-Aug-08 14:30N 45°07' E 036°33'0 0.1
2017-Aug-08 13:54N 45°07' E 036°33'0 0.0
2017-Aug-08 13:30N 45°07' E 036°33'0 0.0
2017-Aug-08 13:00N 45°07' E 036°33'0 0.1
2017-Aug-08 12:30N 45°07' E 036°33'0 0.1
2017-Aug-08 11:48N 45°07' E 036°33'0 0.3
2017-Aug-08 11:30N 45°07' E 036°33'0 0.1
2017-Aug-08 10:57N 45°07' E 036°33'0 0.0
2017-Aug-08 09:30N 45°07' E 036°33'0 0.0
2017-Aug-08 08:45N 45°07' E 036°33'0 0.0
2017-Aug-08 08:21N 45°07' E 036°33'0 0.1
2017-Aug-08 07:54N 45°07' E 036°33'0 0.0
2017-Aug-08 07:30N 45°07' E 036°33'0 0.1
2017-Aug-08 06:57N 45°07' E 036°33'0 0.1
2017-Aug-08 06:30N 45°07' E 036°33'0 0.1
2017-Aug-08 06:00N 45°07' E 036°33'0 0.1
2017-Aug-08 05:21N 45°07' E 036°33'0 0.1
2017-Aug-08 04:57N 45°07' E 036°33'0 0.1
2017-Aug-08 04:24N 45°07' E 036°33'0 0.0
2017-Aug-08 03:27N 45°07' E 036°33'0 0.0
2017-Aug-08 03:00N 45°07' E 036°33'0 0.0
2017-Aug-08 02:12N 45°07' E 036°33'0 0.0
2017-Aug-08 01:51N 45°07' E 036°33'0 0.0
2017-Aug-08 01:30N 45°07' E 036°33'0 0.0
2017-Aug-08 00:06N 45°07' E 036°33'0 0.0
2017-Aug-08 00:00N 45°07' E 036°33'0 0.0
2017-Aug-07 21:27N 45°07' E 036°33'0 0.2
2017-Aug-07 20:27N 45°07' E 036°33'0 0.2
2017-Aug-07 19:51N 45°07' E 036°33'0 0.1
2017-Aug-07 19:30N 45°07' E 036°33'0 0.1
2017-Aug-07 19:00N 45°07' E 036°33'0 0.0
2017-Aug-07 18:03N 45°07' E 036°33'0 0.1
2017-Aug-07 17:54N 45°07' E 036°33'0 0.1
2017-Aug-07 17:30N 45°07' E 036°33'0 0.1
2017-Aug-07 17:00N 45°07' E 036°33'0 0.0
2017-Aug-07 14:51N 45°07' E 036°33'0 0.2
2017-Aug-07 14:30N 45°07' E 036°33'0 0.2
2017-Aug-07 14:00N 45°07' E 036°33'0 0.1
2017-Aug-07 13:30N 45°07' E 036°33'0 0.0
2017-Aug-07 13:00N 45°07' E 036°33'0 0.0
2017-Aug-07 12:30N 45°07' E 036°33'0 0.1
2017-Aug-07 11:57N 45°07' E 036°33'0 0.1
2017-Aug-07 11:30N 45°07' E 036°33'0 0.0
2017-Aug-07 11:00N 45°07' E 036°33'0 0.0
2017-Aug-07 10:30N 45°07' E 036°33'0 0.0
2017-Aug-07 10:00N 45°07' E 036°33'0 0.0
2017-Aug-07 09:30N 45°07' E 036°33'0 0.0
2017-Aug-07 09:00N 45°07' E 036°33'0 0.0
2017-Aug-07 08:30N 45°07' E 036°33'0 0.0
2017-Aug-07 07:36N 45°07' E 036°33'0 0.1
2017-Aug-07 07:30N 45°07' E 036°33'0 0.0
2017-Aug-07 07:00N 45°07' E 036°33'0 0.0
2017-Aug-07 06:21N 45°07' E 036°33'0 0.0
2017-Aug-07 06:00N 45°07' E 036°33'0 0.0
2017-Aug-07 05:30N 45°07' E 036°33'0 0.1
2017-Aug-07 04:57N 45°07' E 036°33'0 0.0
2017-Aug-07 03:54N 45°07' E 036°33'0 0.0
2017-Aug-07 03:30N 45°07' E 036°33'0 0.0
2017-Aug-07 02:42N 45°07' E 036°33'0 0.0
2017-Aug-07 01:42N 45°07' E 036°33'0 0.2
2017-Aug-07 01:24N 45°07' E 036°33'0 0.0
2017-Aug-07 00:57N 45°07' E 036°33'0 0.0
2017-Aug-07 00:09N 45°07' E 036°33'0 0.0
2017-Aug-06 21:33N 45°07' E 036°33'0 0.0
2017-Aug-06 21:12N 45°07' E 036°33'0 0.0
2017-Aug-06 21:00N 45°07' E 036°33'0 0.0
2017-Aug-06 20:27N 45°07' E 036°33'0 0.0
2017-Aug-06 20:00N 45°07' E 036°33'0 0.0
2017-Aug-06 19:30N 45°07' E 036°33'0 0.0
2017-Aug-06 19:00N 45°07' E 036°33'0 0.0
2017-Aug-06 18:30N 45°07' E 036°33'0 0.0
2017-Aug-06 18:00N 45°07' E 036°33'0 0.0
2017-Aug-06 17:24N 45°07' E 036°33'0 0.0
2017-Aug-06 16:51N 45°07' E 036°33'0 0.0
2017-Aug-06 16:30N 45°07' E 036°33'0 0.0
2017-Aug-06 16:00N 45°07' E 036°33'0 0.0
2017-Aug-06 15:30N 45°07' E 036°33'0 0.0
2017-Aug-06 15:00N 45°07' E 036°33'0 0.0
2017-Aug-06 14:30N 45°07' E 036°33'0 0.0
2017-Aug-06 14:00N 45°07' E 036°33'0 0.0
2017-Aug-06 13:30N 45°07' E 036°33'0 0.1
2017-Aug-06 13:00N 45°07' E 036°33'0 0.0
2017-Aug-06 12:30N 45°07' E 036°33'0 0.0
2017-Aug-06 12:00N 45°07' E 036°33'0 0.0
2017-Aug-06 11:27N 45°07' E 036°33'0 0.0
2017-Aug-06 11:00N 45°07' E 036°33'0 0.0
2017-Aug-06 10:30N 45°07' E 036°33'  
Track history (hours):
 
Tides and Currents Weather Stations Pressure Air Temp Water Temp Dewpoint Dewpoint Depression Visibility Wind Speed Wind Dir Waves Ship Positions

Nord Crest

Last reported at 2017-Aug-16 10:10 UTC. Time now 2017-Sep-21 05:25 UTC.
Position N 37°23' E 025°55'.
Warning: this ship's position is 35 days out of date.

Length 200 m; draft 10.7 m.

Type: Cargo ship. MMSI: 357711000.

Date/timePositionNaut miles runAvg speedWind from/ knotsBaromVisibWave heightAir tempDewpointWater temp
2017-Aug-16 10:10N 37°23' E 025°55'211.8
2017-Aug-16 10:00N 37°24' E 025°54'612.0
2017-Aug-16 09:30N 37°30' E 025°51'612.6
2017-Aug-16 09:00N 37°36' E 025°48'612.6
2017-Aug-16 08:30N 37°42' E 025°45'613.0
2017-Aug-16 08:00N 37°48' E 025°42'16511.7
2017-Aug-15 18:00N 40°25' E 026°44'712.2
2017-Aug-15 17:25N 40°29' E 026°52'137 2.9
2017-Aug-13 19:01N 41°22' E 029°38'0 0.5
2017-Aug-13 19:00N 41°22' E 029°38'0 0.7
2017-Aug-13 18:28N 41°23' E 029°38'0 0.8
2017-Aug-13 18:00N 41°23' E 029°38'0 0.9
2017-Aug-13 17:31N 41°23' E 029°37'0 1.0
2017-Aug-13 17:00N 41°24' E 029°37'1 1.1
2017-Aug-13 16:30N 41°24' E 029°36'1 1.2
2017-Aug-13 16:00N 41°24' E 029°36'1 1.3
2017-Aug-13 15:30N 41°25' E 029°35'1 1.3
2017-Aug-13 15:00N 41°25' E 029°34'1 1.3
2017-Aug-13 14:30N 41°25' E 029°33'1 1.2
2017-Aug-13 14:00N 41°25' E 029°33'1 1.1
2017-Aug-13 13:31N 41°25' E 029°32'1 1.0
2017-Aug-13 12:56N 41°25' E 029°31'1 1.0
2017-Aug-13 11:41N 41°25' E 029°29'12 2.0
2017-Aug-13 05:25N 41°24' E 029°46'1 0.4
2017-Aug-13 02:53N 41°25' E 029°45'0 0.6
2017-Aug-13 02:17N 41°25' E 029°45'0 0.6
2017-Aug-13 02:00N 41°25' E 029°45'0 0.6
2017-Aug-13 01:29N 41°25' E 029°45'0 0.9
2017-Aug-13 01:00N 41°26' E 029°44'0 0.9
2017-Aug-13 00:30N 41°26' E 029°44'0 0.9
2017-Aug-13 00:00N 41°26' E 029°44'0 0.8
2017-Aug-12 23:31N 41°27' E 029°43'0 0.9
2017-Aug-12 23:00N 41°27' E 029°43'0 0.8
2017-Aug-12 22:30N 41°27' E 029°42'0 0.9
2017-Aug-12 22:00N 41°27' E 029°42'1 0.9
2017-Aug-12 21:20N 41°27' E 029°41'0 0.9
2017-Aug-12 21:00N 41°27' E 029°41'0 0.9
2017-Aug-12 20:30N 41°27' E 029°40'0 0.9
2017-Aug-12 19:57N 41°27' E 029°39'0 0.8
2017-Aug-12 19:29N 41°27' E 029°39'0 0.8
2017-Aug-12 18:54N 41°27' E 029°38'0 0.8
2017-Aug-12 18:19N 41°27' E 029°38'0 0.7
2017-Aug-12 17:59N 41°27' E 029°37'0 0.7
2017-Aug-12 17:25N 41°27' E 029°37'0 0.6
2017-Aug-12 17:00N 41°27' E 029°37'0 0.5
2017-Aug-12 16:30N 41°27' E 029°36'0 0.4
2017-Aug-12 15:44N 41°26' E 029°36'0 0.3
2017-Aug-12 15:30N 41°26' E 029°36'0 0.2
2017-Aug-12 15:00N 41°26' E 029°36'3 0.5
2017-Aug-12 09:13N 41°29' E 029°36'0 0.8
2017-Aug-12 08:59N 41°29' E 029°36'0 1.0
2017-Aug-12 08:30N 41°30' E 029°36'1 1.0
2017-Aug-12 08:00N 41°30' E 029°35'0 0.9
2017-Aug-12 07:29N 41°31' E 029°35'0 0.7
2017-Aug-12 06:58N 41°31' E 029°35'0 1.0
2017-Aug-12 06:30N 41°31' E 029°34'0 0.9
2017-Aug-12 06:00N 41°32' E 029°34'0 0.5
2017-Aug-12 05:30N 41°32' E 029°34'2 4.1
2017-Aug-12 04:57N 41°32' E 029°37'5 9.9
2017-Aug-12 04:25N 41°35' E 029°43'711.8
2017-Aug-12 03:50N 41°39' E 029°50'411.8
2017-Aug-12 03:30N 41°41' E 029°55'1011.8
2017-Aug-12 02:37N 41°46' E 030°07'111.9
2017-Aug-12 02:30N 41°47' E 030°09'612.0
2017-Aug-12 02:00N 41°50' E 030°16'612.1
2017-Aug-12 01:30N 41°53' E 030°22'612.1
2017-Aug-12 01:00N 41°56' E 030°29'612.1
2017-Aug-12 00:30N 41°59' E 030°36'612.2
2017-Aug-12 00:01N 42°02' E 030°43'612.3
2017-Aug-11 23:30N 42°05' E 030°51'612.5
2017-Aug-11 23:00N 42°09' E 030°58'612.5
2017-Aug-11 22:30N 42°12' E 031°05'612.5
2017-Aug-11 22:00N 42°15' E 031°12'612.6
2017-Aug-11 21:30N 42°18' E 031°20'612.7
2017-Aug-11 21:00N 42°21' E 031°27'612.6
2017-Aug-11 20:30N 42°24' E 031°35'612.5
2017-Aug-11 20:00N 42°27' E 031°42'612.3
2017-Aug-11 19:31N 42°31' E 031°49'612.2
2017-Aug-11 19:00N 42°34' E 031°56'612.2
2017-Aug-11 18:30N 42°37' E 032°03'612.7
2017-Aug-11 18:00N 42°40' E 032°11'713.8
2017-Aug-11 17:31N 42°44' E 032°19'713.8
2017-Aug-11 17:00N 42°47' E 032°27'713.5
2017-Aug-11 16:30N 42°51' E 032°35'713.3
2017-Aug-11 16:00N 42°54' E 032°43'713.1
2017-Aug-11 15:30N 42°57' E 032°50'713.1
2017-Aug-11 15:00N 43°01' E 032°58'712.9
2017-Aug-11 14:30N 43°04' E 033°06'189 9.3
2017-Aug-10 18:09N 45°02' E 036°32'0 0.0
2017-Aug-10 16:57N 45°02' E 036°32'0 0.0
2017-Aug-10 16:24N 45°02' E 036°32'4 0.5
2017-Aug-10 08:41N 45°06' E 036°32'1 2.3
2017-Aug-10 08:06N 45°07' E 036°33'0 0.2
2017-Aug-10 08:00N 45°07' E 036°33'0 0.1
2017-Aug-10 07:30N 45°07' E 036°33'0 0.0
2017-Aug-10 05:30N 45°07' E 036°33'0 0.0
2017-Aug-10 04:54N 45°07' E 036°33'0 0.0
2017-Aug-10 04:18N 45°07' E 036°33'0 0.0
2017-Aug-10 04:00N 45°07' E 036°33'0 0.0
2017-Aug-10 03:30N 45°07' E 036°33'0 0.0
2017-Aug-10 03:00N 45°07' E 036°33'0 0.0
2017-Aug-10 02:30N 45°07' E 036°33'0 0.0
2017-Aug-09 21:36N 45°07' E 036°33'0 0.0
2017-Aug-09 19:09N 45°07' E 036°33'0 0.0
2017-Aug-09 19:00N 45°07' E 036°33'0 0.0
2017-Aug-09 17:12N 45°07' E 036°33'0 0.1
2017-Aug-09 17:00N 45°07' E 036°33'0 0.0
2017-Aug-09 16:30N 45°07' E 036°33'0 0.0
2017-Aug-09 16:00N 45°07' E 036°33'0 0.0
2017-Aug-09 15:27N 45°07' E 036°33'0 0.0
2017-Aug-09 14:48N 45°07' E 036°33'0 0.1
2017-Aug-09 14:30N 45°07' E 036°33'0 0.0
2017-Aug-09 14:00N 45°07' E 036°33'0 0.0
2017-Aug-09 13:27N 45°07' E 036°33'0 0.0
2017-Aug-09 13:00N 45°07' E 036°33'0 0.0
2017-Aug-09 12:30N 45°07' E 036°33'0 0.0
2017-Aug-09 11:57N 45°07' E 036°33'0 0.0
2017-Aug-09 11:27N 45°07' E 036°33'0 0.0
2017-Aug-09 10:12N 45°07' E 036°33'0 0.0
2017-Aug-08 19:24N 45°07' E 036°33'0 0.1
2017-Aug-08 19:00N 45°07' E 036°33'0 0.1
2017-Aug-08 18:30N 45°07' E 036°33'0 0.2
2017-Aug-08 18:00N 45°07' E 036°33'0 0.1
2017-Aug-08 17:30N 45°07' E 036°33'0 0.0
2017-Aug-08 17:00N 45°07' E 036°33'0 0.0
2017-Aug-08 16:27N 45°07' E 036°33'0 0.0
2017-Aug-08 16:00N 45°07' E 036°33'0 0.1
2017-Aug-08 15:30N 45°07' E 036°33'0 0.1
2017-Aug-08 14:54N 45°07' E 036°33'0 0.1
2017-Aug-08 14:30N 45°07' E 036°33'0 0.1
2017-Aug-08 13:54N 45°07' E 036°33'0 0.0
2017-Aug-08 13:30N 45°07' E 036°33'0 0.0
2017-Aug-08 13:00N 45°07' E 036°33'0 0.1
2017-Aug-08 12:30N 45°07' E 036°33'0 0.1
2017-Aug-08 11:48N 45°07' E 036°33'0 0.3
2017-Aug-08 11:30N 45°07' E 036°33'0 0.1
2017-Aug-08 10:57N 45°07' E 036°33'0 0.0
2017-Aug-08 09:30N 45°07' E 036°33'0 0.0
2017-Aug-08 08:45N 45°07' E 036°33'0 0.0
2017-Aug-08 08:21N 45°07' E 036°33'0 0.1
2017-Aug-08 07:54N 45°07' E 036°33'0 0.0
2017-Aug-08 07:30N 45°07' E 036°33'0 0.1
2017-Aug-08 06:57N 45°07' E 036°33'0 0.1
2017-Aug-08 06:30N 45°07' E 036°33'0 0.1
2017-Aug-08 06:00N 45°07' E 036°33'0 0.1
2017-Aug-08 05:21N 45°07' E 036°33'0 0.1
2017-Aug-08 04:57N 45°07' E 036°33'0 0.1
2017-Aug-08 04:24N 45°07' E 036°33'0 0.0
2017-Aug-08 03:27N 45°07' E 036°33'0 0.0
2017-Aug-08 03:00N 45°07' E 036°33'0 0.0
2017-Aug-08 02:12N 45°07' E 036°33'0 0.0
2017-Aug-08 01:51N 45°07' E 036°33'0 0.0
2017-Aug-08 01:30N 45°07' E 036°33'0 0.0
2017-Aug-08 00:06N 45°07' E 036°33'0 0.0
2017-Aug-08 00:00N 45°07' E 036°33'0 0.0
2017-Aug-07 21:27N 45°07' E 036°33'0 0.2
2017-Aug-07 20:27N 45°07' E 036°33'0 0.2
2017-Aug-07 19:51N 45°07' E 036°33'0 0.1
2017-Aug-07 19:30N 45°07' E 036°33'0 0.1
2017-Aug-07 19:00N 45°07' E 036°33'0 0.0
2017-Aug-07 18:03N 45°07' E 036°33'0 0.1
2017-Aug-07 17:54N 45°07' E 036°33'0 0.1
2017-Aug-07 17:30N 45°07' E 036°33'0 0.1
2017-Aug-07 17:00N 45°07' E 036°33'0 0.0
2017-Aug-07 14:51N 45°07' E 036°33'0 0.2
2017-Aug-07 14:30N 45°07' E 036°33'0 0.2
2017-Aug-07 14:00N 45°07' E 036°33'0 0.1
2017-Aug-07 13:30N 45°07' E 036°33'0 0.0
2017-Aug-07 13:00N 45°07' E 036°33'0 0.0
2017-Aug-07 12:30N 45°07' E 036°33'0 0.1
2017-Aug-07 11:57N 45°07' E 036°33'0 0.1
2017-Aug-07 11:30N 45°07' E 036°33'0 0.0
2017-Aug-07 11:00N 45°07' E 036°33'0 0.0
2017-Aug-07 10:30N 45°07' E 036°33'0 0.0
2017-Aug-07 10:00N 45°07' E 036°33'0 0.0
2017-Aug-07 09:30N 45°07' E 036°33'0 0.0
2017-Aug-07 09:00N 45°07' E 036°33'0 0.0
2017-Aug-07 08:30N 45°07' E 036°33'0 0.0
2017-Aug-07 07:36N 45°07' E 036°33'0 0.1
2017-Aug-07 07:30N 45°07' E 036°33'0 0.0
2017-Aug-07 07:00N 45°07' E 036°33'0 0.0
2017-Aug-07 06:21N 45°07' E 036°33'0 0.0
2017-Aug-07 06:00N 45°07' E 036°33'0 0.0
2017-Aug-07 05:30N 45°07' E 036°33'0 0.1
2017-Aug-07 04:57N 45°07' E 036°33'0 0.0
2017-Aug-07 03:54N 45°07' E 036°33'0 0.0
2017-Aug-07 03:30N 45°07' E 036°33'0 0.0
2017-Aug-07 02:42N 45°07' E 036°33'0 0.0
2017-Aug-07 01:42N 45°07' E 036°33'0 0.2
2017-Aug-07 01:24N 45°07' E 036°33'0 0.0
2017-Aug-07 00:57N 45°07' E 036°33'0 0.0
2017-Aug-07 00:09N 45°07' E 036°33'0 0.0
2017-Aug-06 21:33N 45°07' E 036°33'0 0.0
2017-Aug-06 21:12N 45°07' E 036°33'0 0.0
2017-Aug-06 21:00N 45°07' E 036°33'0 0.0
2017-Aug-06 20:27N 45°07' E 036°33'0 0.0
2017-Aug-06 20:00N 45°07' E 036°33'0 0.0
2017-Aug-06 19:30N 45°07' E 036°33'0 0.0
2017-Aug-06 19:00N 45°07' E 036°33'0 0.0
2017-Aug-06 18:30N 45°07' E 036°33'0 0.0
2017-Aug-06 18:00N 45°07' E 036°33'0 0.0
2017-Aug-06 17:24N 45°07' E 036°33'0 0.0
2017-Aug-06 16:51N 45°07' E 036°33'0 0.0
2017-Aug-06 16:30N 45°07' E 036°33'0 0.0
2017-Aug-06 16:00N 45°07' E 036°33'0 0.0
2017-Aug-06 15:30N 45°07' E 036°33'0 0.0
2017-Aug-06 15:00N 45°07' E 036°33'0 0.0
2017-Aug-06 14:30N 45°07' E 036°33'0 0.0
2017-Aug-06 14:00N 45°07' E 036°33'0 0.0
2017-Aug-06 13:30N 45°07' E 036°33'0 0.1
2017-Aug-06 13:00N 45°07' E 036°33'0 0.0
2017-Aug-06 12:30N 45°07' E 036°33'0 0.0
2017-Aug-06 12:00N 45°07' E 036°33'0 0.0
2017-Aug-06 11:27N 45°07' E 036°33'0 0.0
2017-Aug-06 11:00N 45°07' E 036°33'0 0.0
2017-Aug-06 10:30N 45°07' E 036°33'  

Dump ship's entire track history